Time;durP1;ratioP1;P1;durP2;ratioP2;P2;SDS_P1;SDS_P2;PMS_P1;PMS_P2;Temp;Humidity;BMP_temperature;BMP_pressure;BME280_temperature;BME280_humidity;BME280_pressure;Samples;Min_cycle;Max_cycle;Signal;HPM_P1;HPM_P2
2023/08/29 00:01:23;;;;;;;1.95;0.70;;;13.30;99.90;;;;;;5058090;28;20486;-36
2023/08/29 00:03:51;;;;;;;1.67;0.50;;;13.30;99.90;;;;;;5048728;28;20463;-35
2023/08/29 00:06:16;;;;;;;0.63;0.40;;;13.30;99.90;;;;;;5047478;28;20132;-36
2023/08/29 00:08:42;;;;;;;0.55;0.35;;;13.30;99.90;;;;;;5060788;28;20143;-36
2023/08/29 00:11:08;;;;;;;0.60;0.25;;;13.30;99.90;;;;;;5045410;28;20136;-40
2023/08/29 00:13:34;;;;;;;0.80;0.40;;;13.30;99.90;;;;;;5049250;28;20048;-35
2023/08/29 00:15:59;;;;;;;0.68;0.38;;;13.30;99.90;;;;;;5048191;28;20136;-40
2023/08/29 00:18:25;;;;;;;1.20;0.50;;;13.30;99.90;;;;;;5042009;28;20523;-36
2023/08/29 00:20:51;;;;;;;0.85;0.40;;;13.30;99.90;;;;;;5057859;28;20097;-36
2023/08/29 00:23:17;;;;;;;1.40;0.60;;;13.30;99.90;;;;;;5047141;28;20044;-36
2023/08/29 00:25:43;;;;;;;1.42;0.50;;;13.30;99.90;;;;;;5063011;28;20106;-36
2023/08/29 00:28:10;;;;;;;1.10;0.60;;;13.30;99.90;;;;;;5055127;28;20457;-36
2023/08/29 00:30:37;;;;;;;1.30;0.57;;;13.20;99.90;;;;;;5064037;28;20414;-36
2023/08/29 00:33:04;;;;;;;1.42;0.50;;;13.20;99.90;;;;;;5069166;28;20056;-38
2023/08/29 00:35:30;;;;;;;2.15;0.60;;;13.20;99.90;;;;;;5068021;28;20071;-36
2023/08/29 00:37:56;;;;;;;1.77;0.60;;;13.20;99.90;;;;;;5065732;28;20056;-36
2023/08/29 00:40:21;;;;;;;2.25;0.70;;;13.10;99.90;;;;;;5064754;28;20063;-35
2023/08/29 00:42:47;;;;;;;1.05;0.60;;;13.10;99.90;;;;;;5063540;28;20052;-36
2023/08/29 00:45:13;;;;;;;3.45;0.70;;;13.10;99.90;;;;;;5066815;28;20138;-36
2023/08/29 00:47:40;;;;;;;1.42;0.77;;;13.10;99.90;;;;;;5065269;28;20053;-36
2023/08/29 00:50:09;;;;;;;1.20;0.60;;;13.10;99.90;;;;;;5051792;28;20056;-36
2023/08/29 00:52:35;;;;;;;1.50;0.80;;;13.10;99.90;;;;;;5060603;28;20059;-36
2023/08/29 00:55:02;;;;;;;1.30;0.77;;;13.10;99.90;;;;;;5064873;28;20068;-36
2023/08/29 00:57:28;;;;;;;2.08;0.70;;;13.10;99.90;;;;;;5068610;28;20087;-36
2023/08/29 00:59:53;;;;;;;1.85;0.90;;;13.10;99.90;;;;;;5063043;28;20063;-36
2023/08/29 01:02:19;;;;;;;3.88;0.80;;;13.10;99.90;;;;;;5055282;28;20059;-36
2023/08/29 01:04:45;;;;;;;1.52;0.90;;;13.10;99.90;;;;;;5067859;28;20057;-36
2023/08/29 01:07:12;;;;;;;3.25;0.95;;;13.10;99.90;;;;;;5049115;28;20154;-36
2023/08/29 01:09:38;;;;;;;1.52;0.80;;;13.00;99.90;;;;;;5048970;28;20076;-36
2023/08/29 01:12:18;;;;;;;2.05;0.90;;;13.00;99.90;;;;;;5069082;28;20556;-37
2023/08/29 01:15:11;;;;;;;1.20;0.63;;;13.00;99.90;;;;;;5050342;28;20470;-36
2023/08/29 01:17:47;;;;;;;1.25;0.77;;;13.00;99.90;;;;;;5065223;28;20532;-36
2023/08/29 01:20:13;;;;;;;2.25;0.73;;;13.00;99.90;;;;;;5068345;28;20075;-37
2023/08/29 01:23:07;;;;;;;1.75;0.82;;;13.00;99.90;;;;;;5063961;28;20044;-36
2023/08/29 01:26:05;;;;;;;1.70;0.90;;;13.00;99.90;;;;;;5065312;28;20044;-36
2023/08/29 01:28:32;;;;;;;2.45;1.20;;;12.90;99.90;;;;;;5055218;28;20068;-36
2023/08/29 01:30:58;;;;;;;1.52;0.88;;;12.90;99.90;;;;;;5066200;28;20044;-36
2023/08/29 01:33:24;;;;;;;2.10;1.10;;;12.90;99.90;;;;;;5061306;28;20113;-36
2023/08/29 01:35:50;;;;;;;1.10;0.55;;;12.90;99.90;;;;;;5072790;28;20056;-35
2023/08/29 01:38:18;;;;;;;1.98;0.82;;;12.90;99.90;;;;;;5061398;28;20402;-37
2023/08/29 01:40:45;;;;;;;2.97;0.80;;;12.90;99.90;;;;;;5074137;28;20048;-36
2023/08/29 01:43:10;;;;;;;1.67;0.80;;;12.90;99.90;;;;;;5063034;28;20523;-37
2023/08/29 01:45:36;;;;;;;0.93;0.50;;;12.90;99.90;;;;;;5063405;28;20053;-37
2023/08/29 01:48:02;;;;;;;1.25;0.70;;;12.90;99.90;;;;;;5071554;28;20058;-36
2023/08/29 01:50:31;;;;;;;1.10;0.55;;;12.90;99.90;;;;;;5068084;28;20090;-36
2023/08/29 01:52:58;;;;;;;1.45;0.40;;;12.80;99.90;;;;;;5065674;28;20256;-36
2023/08/29 01:55:25;;;;;;;2.83;0.60;;;12.80;99.90;;;;;;5051191;28;20466;-36
2023/08/29 01:57:51;;;;;;;0.88;0.47;;;12.80;99.90;;;;;;5056755;28;20556;-37
2023/08/29 02:00:18;;;;;;;1.13;0.52;;;12.80;99.90;;;;;;5060314;28;20060;-36
2023/08/29 02:02:44;;;;;;;1.58;0.70;;;12.80;99.90;;;;;;5058950;28;20044;-36
2023/08/29 02:05:10;;;;;;;5.47;0.60;;;12.70;99.90;;;;;;5047116;28;20053;-36
2023/08/29 02:07:35;;;;;;;1.13;0.50;;;12.70;99.90;;;;;;5048124;28;20055;-36
2023/08/29 02:10:01;;;;;;;2.35;0.77;;;12.70;99.90;;;;;;5060148;28;20055;-36
2023/08/29 02:12:27;;;;;;;1.27;0.50;;;12.70;99.90;;;;;;5058334;28;20678;-36
2023/08/29 02:14:52;;;;;;;1.40;0.60;;;12.70;99.90;;;;;;5061527;28;20040;-36
2023/08/29 02:17:18;;;;;;;1.40;0.65;;;12.70;99.90;;;;;;5055389;28;20413;-36
2023/08/29 02:19:44;;;;;;;1.35;0.68;;;12.70;99.90;;;;;;5063825;28;20067;-35
2023/08/29 02:22:09;;;;;;;1.17;0.68;;;12.70;99.90;;;;;;5067946;28;20063;-36
2023/08/29 02:24:35;;;;;;;1.65;0.77;;;12.60;99.90;;;;;;5058362;28;20065;-35
2023/08/29 02:27:01;;;;;;;2.20;0.95;;;12.60;99.90;;;;;;5066405;28;20060;-37
2023/08/29 02:29:26;;;;;;;1.50;0.80;;;12.70;99.90;;;;;;5062370;28;20051;-36
2023/08/29 02:31:52;;;;;;;1.83;0.85;;;12.60;99.90;;;;;;5060944;28;20084;-36
2023/08/29 02:34:18;;;;;;;2.35;0.90;;;12.60;99.90;;;;;;5062569;28;20052;-36
2023/08/29 02:36:43;;;;;;;1.73;0.77;;;12.60;99.90;;;;;;5063042;28;20067;-36
2023/08/29 02:39:10;;;;;;;2.28;0.93;;;12.60;99.90;;;;;;5065702;28;20059;-36
2023/08/29 02:41:36;;;;;;;4.30;0.98;;;12.60;99.90;;;;;;5064586;28;20080;-36
2023/08/29 02:44:03;;;;;;;2.15;0.90;;;12.60;99.90;;;;;;5065306;28;20084;-50
2023/08/29 02:46:29;;;;;;;2.45;0.95;;;12.60;99.90;;;;;;5058962;28;20052;-36
2023/08/29 02:48:54;;;;;;;1.92;0.93;;;12.50;99.90;;;;;;5064855;28;20102;-36
2023/08/29 02:51:20;;;;;;;1.70;0.70;;;12.50;99.90;;;;;;5063792;28;20049;-36
2023/08/29 02:53:46;;;;;;;2.88;0.93;;;12.50;99.90;;;;;;5061397;28;20061;-36
2023/08/29 02:56:11;;;;;;;2.42;1.05;;;12.50;99.90;;;;;;5051294;28;20132;-35
2023/08/29 02:58:37;;;;;;;4.05;1.30;;;12.50;99.90;;;;;;5051035;28;20509;-36
2023/08/29 03:01:06;;;;;;;2.60;1.00;;;12.40;99.90;;;;;;5059254;28;20052;-36
2023/08/29 03:03:31;;;;;;;2.47;1.00;;;12.40;99.90;;;;;;5057733;28;20778;-35
2023/08/29 03:05:59;;;;;;;2.38;0.95;;;12.40;99.90;;;;;;5047117;28;20063;-36
2023/08/29 03:08:25;;;;;;;2.95;1.30;;;12.40;99.90;;;;;;5069570;28;20045;-37
2023/08/29 03:10:52;;;;;;;3.17;1.15;;;12.40;99.90;;;;;;5056802;28;20061;-36
2023/08/29 03:13:18;;;;;;;2.20;1.10;;;12.40;99.90;;;;;;5064908;28;20285;-36
2023/08/29 03:15:45;;;;;;;2.22;0.80;;;12.40;99.90;;;;;;5063048;28;20049;-36
2023/08/29 03:18:11;;;;;;;3.13;1.00;;;12.30;99.90;;;;;;5062725;28;20056;-36
2023/08/29 03:20:43;;;;;;;1.55;0.80;;;12.30;99.90;;;;;;5057673;28;20525;-36
2023/08/29 03:23:09;;;;;;;1.38;0.77;;;12.30;99.90;;;;;;5064936;28;20040;-37
2023/08/29 03:25:35;;;;;;;1.90;0.73;;;12.30;99.90;;;;;;5059548;28;20036;-37
2023/08/29 03:28:00;;;;;;;3.42;0.80;;;12.30;99.90;;;;;;5062298;28;20628;-37
2023/08/29 03:30:27;;;;;;;3.28;0.70;;;12.20;99.90;;;;;;5061878;28;20040;-36
2023/08/29 03:32:53;;;;;;;2.25;0.60;;;12.20;99.90;;;;;;5058043;28;20056;-36
2023/08/29 03:35:19;;;;;;;9.90;0.85;;;12.20;99.90;;;;;;5068077;28;20047;-35
2023/08/29 03:37:45;;;;;;;1.15;0.60;;;12.20;99.90;;;;;;5070007;28;20061;-36
2023/08/29 03:40:12;;;;;;;1.20;0.63;;;12.20;99.90;;;;;;5071283;28;20059;-36
2023/08/29 03:42:39;;;;;;;1.92;0.40;;;12.10;99.90;;;;;;5063137;28;20105;-37
2023/08/29 03:45:05;;;;;;;1.10;0.50;;;12.10;99.90;;;;;;5064113;28;20040;-36
2023/08/29 03:47:33;;;;;;;0.88;0.43;;;12.10;99.90;;;;;;5070654;28;20098;-36
2023/08/29 03:49:59;;;;;;;0.88;0.40;;;12.10;99.90;;;;;;5068925;28;20551;-36
2023/08/29 03:52:26;;;;;;;2.10;0.40;;;12.00;99.90;;;;;;5063952;28;20490;-36
2023/08/29 03:54:53;;;;;;;1.13;0.40;;;12.00;99.90;;;;;;5065510;28;20052;-36
2023/08/29 03:57:18;;;;;;;2.67;0.55;;;11.90;99.90;;;;;;5063130;28;20041;-37
2023/08/29 03:59:44;;;;;;;0.40;0.30;;;11.90;99.90;;;;;;5070470;28;20109;-37
2023/08/29 04:02:10;;;;;;;1.67;0.40;;;11.90;99.90;;;;;;5068406;28;20048;-36
2023/08/29 04:04:35;;;;;;;2.50;0.47;;;11.80;99.90;;;;;;5049872;28;21551;-36
2023/08/29 04:07:01;;;;;;;50.30;3.33;;;11.80;99.90;;;;;;5044107;28;20063;-36
2023/08/29 04:09:27;;;;;;;87.13;3.88;;;11.80;99.90;;;;;;5056431;28;20040;-36
2023/08/29 04:11:53;;;;;;;63.13;4.55;;;11.80;99.90;;;;;;5058882;28;20620;-35
2023/08/29 04:14:18;;;;;;;34.63;2.33;;;11.70;99.90;;;;;;5043360;28;20518;-36
2023/08/29 04:16:44;;;;;;;45.72;2.72;;;11.70;99.90;;;;;;5061980;28;20053;-36
2023/08/29 04:19:11;;;;;;;15.73;1.27;;;11.70;99.90;;;;;;5054346;28;20135;-36
2023/08/29 04:21:36;;;;;;;37.72;1.33;;;11.60;99.90;;;;;;5052474;28;20048;-36
2023/08/29 04:24:02;;;;;;;45.92;2.58;;;11.50;99.90;;;;;;5063048;28;20056;-36
2023/08/29 04:26:28;;;;;;;55.42;1.77;;;11.40;99.90;;;;;;5060523;28;20068;-36
2023/08/29 04:28:54;;;;;;;5.78;0.68;;;11.40;99.90;;;;;;5056775;28;20056;-36
2023/08/29 04:31:20;;;;;;;10.65;0.40;;;11.40;99.90;;;;;;5058451;28;20052;-36
2023/08/29 04:33:46;;;;;;;4.28;0.20;;;11.40;99.90;;;;;;5044973;28;20048;-36
2023/08/29 04:36:18;;;;;;;0.75;0.20;;;11.40;99.90;;;;;;5069338;28;20059;-36
2023/08/29 04:38:48;;;;;;;0.45;0.10;;;11.40;99.90;;;;;;5070868;28;20055;-40
2023/08/29 04:41:14;;;;;;;1.60;0.20;;;11.40;99.90;;;;;;5067051;28;20062;-36
2023/08/29 04:43:40;;;;;;;0.63;0.30;;;11.40;99.90;;;;;;5058843;28;20041;-37
2023/08/29 04:46:09;;;;;;;1.85;0.20;;;11.50;99.90;;;;;;5065177;28;20106;-36
2023/08/29 04:48:35;;;;;;;0.50;0.30;;;11.50;99.90;;;;;;5068097;28;20057;-36
2023/08/29 04:51:01;;;;;;;0.80;0.30;;;11.50;99.90;;;;;;5068013;28;20051;-36
2023/08/29 04:53:27;;;;;;;2.10;0.52;;;11.50;99.90;;;;;;5068293;28;20057;-36
2023/08/29 04:56:03;;;;;;;1.13;0.40;;;11.60;99.90;;;;;;5070250;28;20056;-36
2023/08/29 04:58:32;;;;;;;13.82;1.67;;;11.60;99.90;;;;;;5059415;28;20068;-36
2023/08/29 05:00:58;;;;;;;16.83;2.53;;;11.70;99.90;;;;;;5059650;28;20132;-35
2023/08/29 05:03:24;;;;;;;37.72;3.22;;;11.70;99.90;;;;;;5058567;28;20143;-37
2023/08/29 05:05:51;;;;;;;11.82;1.10;;;11.70;99.90;;;;;;5056425;28;20052;-38
2023/08/29 05:08:17;;;;;;;15.38;1.70;;;11.70;99.90;;;;;;5071885;28;20055;-35
2023/08/29 05:10:43;;;;;;;10.38;1.38;;;11.80;99.90;;;;;;5063059;28;20067;-36
2023/08/29 05:13:10;;;;;;;32.38;2.42;;;11.70;99.90;;;;;;5066210;28;20418;-36
2023/08/29 05:15:35;;;;;;;33.15;2.50;;;11.80;99.90;;;;;;5065677;28;20877;-36
2023/08/29 05:18:01;;;;;;;14.82;1.67;;;11.80;99.90;;;;;;5068859;28;20054;-35
2023/08/29 05:20:27;;;;;;;7.68;1.42;;;11.80;99.90;;;;;;5057495;28;20048;-35
2023/08/29 05:22:52;;;;;;;63.78;4.43;;;11.80;99.90;;;;;;5061335;28;20374;-36
2023/08/29 05:25:18;;;;;;;28.13;2.03;;;11.90;99.90;;;;;;5061569;28;20135;-35
2023/08/29 05:27:44;;;;;;;23.20;1.90;;;11.90;99.90;;;;;;5054416;28;20083;-36
2023/08/29 05:30:10;;;;;;;17.17;1.75;;;11.90;99.90;;;;;;5045677;28;20312;-36
2023/08/29 05:32:39;;;;;;;10.27;1.10;;;11.80;99.90;;;;;;5054555;28;20053;-35
2023/08/29 05:35:06;;;;;;;8.75;1.08;;;11.80;99.90;;;;;;5038902;28;20049;-36
2023/08/29 05:37:32;;;;;;;3.50;0.80;;;11.90;99.90;;;;;;5056429;28;20075;-36
2023/08/29 05:39:58;;;;;;;1.95;0.73;;;11.90;99.90;;;;;;5061383;28;20049;-34
2023/08/29 05:42:23;;;;;;;1.90;0.90;;;11.90;99.90;;;;;;5060408;28;20040;-36
2023/08/29 05:44:49;;;;;;;1.98;0.88;;;12.00;99.90;;;;;;5059527;28;20538;-36
2023/08/29 05:47:15;;;;;;;12.57;1.90;;;12.00;99.90;;;;;;5060274;28;20056;-36
2023/08/29 05:49:40;;;;;;;3.00;0.80;;;12.00;99.90;;;;;;5042091;28;20056;-36
2023/08/29 05:52:06;;;;;;;9.20;0.60;;;12.00;99.90;;;;;;5055258;28;20106;-35
2023/08/29 05:54:34;;;;;;;6.35;0.50;;;12.10;99.90;;;;;;5063773;28;20056;-35
2023/08/29 05:57:00;;;;;;;14.35;0.70;;;12.10;99.90;;;;;;5065850;28;20086;-36
2023/08/29 05:59:26;;;;;;;12.05;1.25;;;12.10;99.90;;;;;;5053301;28;20439;-35
2023/08/29 06:01:52;;;;;;;15.77;1.00;;;12.00;99.90;;;;;;5080373;28;20064;-35
2023/08/29 06:04:17;;;;;;;6.38;0.60;;;12.00;99.90;;;;;;5068040;28;20040;-36
2023/08/29 06:06:43;;;;;;;19.77;0.75;;;12.00;99.90;;;;;;5067264;28;20565;-35
2023/08/29 06:09:10;;;;;;;13.52;0.50;;;12.00;99.90;;;;;;5061679;28;20048;-35
2023/08/29 06:11:36;;;;;;;33.00;1.13;;;12.00;99.90;;;;;;5050509;28;20604;-35
2023/08/29 06:14:02;;;;;;;23.20;1.45;;;12.10;99.90;;;;;;5061384;28;20053;-35
2023/08/29 06:16:27;;;;;;;8.15;0.50;;;12.10;99.90;;;;;;5067903;28;20099;-35
2023/08/29 06:18:53;;;;;;;10.93;0.60;;;12.10;99.90;;;;;;5052468;28;20067;-35
2023/08/29 06:21:19;;;;;;;8.93;0.55;;;12.20;99.90;;;;;;5047636;28;20442;-35
2023/08/29 06:23:45;;;;;;;7.57;0.40;;;12.30;99.90;;;;;;5048899;28;20138;-35
2023/08/29 06:26:11;;;;;;;6.43;0.80;;;12.30;99.90;;;;;;5065852;28;20479;-34
2023/08/29 06:28:37;;;;;;;5.38;0.50;;;12.40;99.90;;;;;;5067934;28;20052;-40
2023/08/29 06:31:08;;;;;;;12.63;0.85;;;12.50;99.90;;;;;;5054522;28;20174;-37
2023/08/29 06:33:37;;;;;;;9.63;0.70;;;12.60;99.90;;;;;;5048139;28;20049;-36
2023/08/29 06:36:03;;;;;;;29.13;1.70;;;12.70;99.90;;;;;;5058217;28;20041;-36
2023/08/29 06:38:30;;;;;;;21.67;1.98;;;12.80;99.90;;;;;;5058900;28;20061;-35
2023/08/29 06:40:57;;;;;;;27.33;1.92;;;12.90;99.90;;;;;;5050105;28;20045;-36
2023/08/29 06:43:24;;;;;;;40.08;2.70;;;13.00;99.90;;;;;;5065215;28;20182;-35
2023/08/29 06:45:49;;;;;;;15.68;2.08;;;13.10;99.90;;;;;;5066409;28;20101;-36
2023/08/29 06:48:15;;;;;;;18.15;2.20;;;13.20;99.90;;;;;;5066453;28;20061;-35
2023/08/29 06:50:41;;;;;;;22.35;2.22;;;13.40;99.90;;;;;;5065342;28;20052;-36
2023/08/29 06:53:07;;;;;;;13.07;2.38;;;13.40;99.90;;;;;;5067424;28;20057;-35
2023/08/29 06:55:34;;;;;;;18.75;1.98;;;13.60;99.90;;;;;;5061739;28;20505;-36
2023/08/29 06:58:06;;;;;;;7.72;1.88;;;13.70;99.90;;;;;;5068410;28;20179;-36
2023/08/29 07:00:33;;;;;;;7.07;1.73;;;13.80;99.90;;;;;;5063683;28;20557;-38
2023/08/29 07:02:59;;;;;;;6.93;1.40;;;14.00;99.90;;;;;;5064072;28;20045;-36
2023/08/29 07:05:26;;;;;;;5.43;1.30;;;14.10;99.90;;;;;;5068486;28;20049;-36
2023/08/29 07:07:52;;;;;;;8.05;2.05;;;14.20;99.90;;;;;;5060815;28;20090;-35
2023/08/29 07:10:17;;;;;;;7.30;2.13;;;14.30;99.90;;;;;;5065982;28;20143;-36
2023/08/29 07:12:43;;;;;;;8.85;2.15;;;14.40;99.90;;;;;;5064384;28;20437;-35
2023/08/29 07:15:10;;;;;;;5.30;2.40;;;14.50;99.90;;;;;;5059409;28;20052;-36
2023/08/29 07:17:35;;;;;;;5.20;2.97;;;14.60;99.90;;;;;;5065491;28;20563;-36
2023/08/29 07:20:11;;;;;;;4.00;2.40;;;14.70;99.90;;;;;;5065044;28;20095;-36
2023/08/29 07:22:43;;;;;;;4.87;2.40;;;14.90;99.90;;;;;;5027409;28;1191521;-35
2023/08/29 07:25:11;;;;;;;4.93;2.38;;;14.90;99.90;;;;;;5066359;28;20505;-36
2023/08/29 07:27:36;;;;;;;4.78;2.75;;;15.00;99.90;;;;;;5067512;28;20044;-36
2023/08/29 07:30:03;;;;;;;4.38;2.50;;;15.00;99.90;;;;;;5068308;28;20048;-36
2023/08/29 07:32:30;;;;;;;4.80;1.98;;;15.10;99.90;;;;;;5071649;28;20052;-36
2023/08/29 07:34:58;;;;;;;5.25;2.13;;;15.20;99.90;;;;;;5067891;28;20131;-35
2023/08/29 07:37:24;;;;;;;3.85;1.92;;;15.30;99.90;;;;;;5064488;28;20056;-35
2023/08/29 07:39:50;;;;;;;3.33;1.80;;;15.30;99.90;;;;;;5059824;28;20139;-35
2023/08/29 07:42:16;;;;;;;3.88;1.50;;;15.40;99.90;;;;;;5059327;28;20139;-35
2023/08/29 07:44:43;;;;;;;3.67;1.83;;;15.50;99.90;;;;;;5068801;28;20067;-35
2023/08/29 07:47:09;;;;;;;2.40;1.30;;;15.60;99.90;;;;;;5066830;28;20080;-35
2023/08/29 07:49:35;;;;;;;2.72;1.33;;;15.70;99.90;;;;;;5068089;28;20060;-35
2023/08/29 07:52:01;;;;;;;3.78;1.40;;;15.80;99.90;;;;;;5065694;28;20102;-36
2023/08/29 07:54:27;;;;;;;3.03;1.50;;;15.90;99.90;;;;;;5059220;28;20080;-36
2023/08/29 07:56:53;;;;;;;2.03;1.15;;;16.00;99.90;;;;;;5066161;28;20061;-35
2023/08/29 07:59:19;;;;;;;2.53;1.45;;;16.00;99.90;;;;;;5053200;28;20136;-36
2023/08/29 08:01:45;;;;;;;2.75;1.40;;;16.10;99.90;;;;;;5064694;28;20059;-36
2023/08/29 08:04:11;;;;;;;2.33;1.25;;;16.20;99.90;;;;;;5067140;28;20048;-40
2023/08/29 08:06:36;;;;;;;2.75;1.30;;;16.30;99.90;;;;;;5067278;28;20056;-36
2023/08/29 08:09:04;;;;;;;2.15;0.90;;;16.30;99.90;;;;;;5067667;28;20206;-35
2023/08/29 08:11:30;;;;;;;2.70;1.05;;;16.40;99.90;;;;;;5066662;28;20064;-35
2023/08/29 08:13:56;;;;;;;1.67;1.10;;;16.50;99.90;;;;;;5067276;28;20044;-35
2023/08/29 08:16:22;;;;;;;1.88;0.90;;;16.60;99.90;;;;;;5067087;28;20529;-36
2023/08/29 08:18:47;;;;;;;2.42;1.10;;;16.60;99.90;;;;;;5069738;28;20194;-35
2023/08/29 08:21:13;;;;;;;3.08;0.80;;;16.80;99.90;;;;;;5068591;28;20501;-35
2023/08/29 08:23:39;;;;;;;2.33;1.13;;;16.90;99.90;;;;;;5072037;28;20130;-35
2023/08/29 08:26:04;;;;;;;2.28;0.90;;;17.00;99.90;;;;;;5069821;28;20045;-35
2023/08/29 08:28:30;;;;;;;4.15;1.27;;;17.10;99.90;;;;;;5063224;28;20057;-36
2023/08/29 08:30:55;;;;;;;2.80;1.67;;;17.20;99.90;;;;;;5066896;28;20051;-36
2023/08/29 08:33:21;;;;;;;3.10;1.27;;;17.30;99.90;;;;;;5070412;28;20467;-36
2023/08/29 08:35:47;;;;;;;2.55;1.23;;;17.30;99.90;;;;;;5070852;28;20056;-36
2023/08/29 08:38:12;;;;;;;2.60;1.10;;;17.40;99.90;;;;;;5061833;28;20144;-36
2023/08/29 08:40:41;;;;;;;2.58;1.30;;;17.50;99.90;;;;;;5070411;28;20056;-36
2023/08/29 08:43:09;;;;;;;2.75;1.00;;;17.50;99.90;;;;;;5069637;28;20045;-35
2023/08/29 08:45:36;;;;;;;3.60;1.10;;;17.50;99.90;;;;;;5070092;28;20045;-36
2023/08/29 08:48:03;;;;;;;2.80;1.35;;;17.60;99.90;;;;;;5062500;28;20586;-36
2023/08/29 08:50:29;;;;;;;2.45;1.30;;;17.60;99.90;;;;;;5063467;28;20056;-36
2023/08/29 08:52:58;;;;;;;2.67;1.00;;;17.70;99.90;;;;;;5064282;28;20048;-36
2023/08/29 08:55:25;;;;;;;1.80;1.10;;;17.80;99.90;;;;;;5073053;28;20158;-36
2023/08/29 08:57:52;;;;;;;3.40;1.42;;;17.80;99.90;;;;;;5070721;28;20421;-36
2023/08/29 09:00:22;;;;;;;2.40;1.10;;;17.90;99.90;;;;;;5065406;28;20114;-36
2023/08/29 09:02:48;;;;;;;2.03;1.02;;;17.90;99.90;;;;;;5068468;28;20079;-36
2023/08/29 09:05:14;;;;;;;4.00;0.70;;;18.00;99.90;;;;;;5070004;28;20068;-36
2023/08/29 09:07:40;;;;;;;1.63;0.80;;;18.00;99.90;;;;;;5064077;28;20459;-36
2023/08/29 09:10:16;;;;;;;2.10;1.13;;;18.00;99.90;;;;;;5068461;28;20090;-36
2023/08/29 09:12:49;;;;;;;2.85;1.20;;;18.00;99.90;;;;;;5070219;28;20053;-35
2023/08/29 09:15:17;;;;;;;1.40;0.80;;;18.00;99.90;;;;;;5069990;28;20493;-36
2023/08/29 09:17:47;;;;;;;3.40;0.80;;;18.10;99.90;;;;;;5069183;28;20210;-39
2023/08/29 09:20:13;;;;;;;2.70;0.70;;;18.10;99.90;;;;;;5068008;28;20060;-41
2023/08/29 09:22:42;;;;;;;2.78;1.20;;;18.10;99.90;;;;;;5068822;28;20086;-36
2023/08/29 09:25:09;;;;;;;2.80;0.85;;;18.00;99.90;;;;;;5069060;28;20716;-36
2023/08/29 09:27:42;;;;;;;4.28;1.25;;;18.10;99.90;;;;;;5069845;28;20131;-36
2023/08/29 09:30:12;;;;;;;2.95;1.05;;;18.20;99.90;;;;;;5064670;28;20052;-36
2023/08/29 09:32:45;;;;;;;1.70;0.90;;;18.20;99.90;;;;;;5062779;28;20056;-36
2023/08/29 09:35:13;;;;;;;1.88;0.98;;;18.20;99.90;;;;;;5063379;28;20055;-35
2023/08/29 09:37:46;;;;;;;4.88;0.95;;;18.30;99.90;;;;;;5059644;28;20054;-36
2023/08/29 09:40:17;;;;;;;1.90;1.10;;;18.40;99.90;;;;;;5067908;28;20127;-36
2023/08/29 09:42:55;;;;;;;1.73;0.70;;;18.40;99.90;;;;;;5065623;28;20087;-36
2023/08/29 09:45:22;;;;;;;2.92;1.02;;;18.60;99.90;;;;;;5068494;28;20117;-36
2023/08/29 09:47:50;;;;;;;2.35;1.38;;;18.80;99.90;;;;;;5069642;28;20452;-37
2023/08/29 09:50:16;;;;;;;1.92;0.93;;;18.90;99.90;;;;;;5065776;28;20494;-36
2023/08/29 09:52:42;;;;;;;3.60;1.40;;;19.00;99.90;;;;;;5056250;28;20092;-36
2023/08/29 09:55:11;;;;;;;1.35;0.63;;;19.10;99.90;;;;;;5067534;28;20059;-36
2023/08/29 09:57:40;;;;;;;1.40;0.68;;;19.10;99.90;;;;;;5065772;28;20087;-36
2023/08/29 10:00:09;;;;;;;1.90;1.00;;;19.20;99.90;;;;;;5066120;28;20056;-36
2023/08/29 10:02:36;;;;;;;1.70;0.60;;;19.20;99.90;;;;;;5070338;28;20062;-36
2023/08/29 10:05:08;;;;;;;1.20;0.65;;;19.10;99.90;;;;;;5067645;28;20516;-36
2023/08/29 10:07:42;;;;;;;2.03;0.60;;;19.20;99.90;;;;;;5060447;28;20052;-37
2023/08/29 10:10:10;;;;;;;1.50;0.80;;;19.20;99.90;;;;;;5068998;28;20082;-37
2023/08/29 10:12:38;;;;;;;1.67;1.02;;;19.20;99.90;;;;;;5068605;28;21338;-36
2023/08/29 10:15:04;;;;;;;4.05;0.80;;;19.20;99.90;;;;;;5068091;28;20498;-35
2023/08/29 10:17:35;;;;;;;1.88;0.80;;;19.30;99.90;;;;;;5068620;28;20052;-36
2023/08/29 10:20:12;;;;;;;1.95;0.85;;;19.20;99.90;;;;;;5063652;28;20044;-36
2023/08/29 10:22:40;;;;;;;2.55;1.00;;;19.20;99.90;;;;;;5067007;28;20060;-36
2023/08/29 10:25:06;;;;;;;1.50;0.82;;;19.20;99.90;;;;;;5068374;28;20059;-36
2023/08/29 10:27:34;;;;;;;2.17;0.95;;;19.20;99.90;;;;;;5069198;28;20464;-36
2023/08/29 10:30:01;;;;;;;5.55;1.23;;;19.20;99.90;;;;;;5060226;28;20083;-36
2023/08/29 10:32:28;;;;;;;2.15;0.77;;;19.20;99.90;;;;;;5057560;28;20080;-36
2023/08/29 10:34:54;;;;;;;3.03;0.90;;;19.30;99.90;;;;;;5054909;28;20048;-36
2023/08/29 10:37:20;;;;;;;2.10;1.35;;;19.30;99.90;;;;;;5065976;28;20110;-36
2023/08/29 10:39:48;;;;;;;2.30;1.15;;;19.40;99.90;;;;;;5068459;28;20571;-36
2023/08/29 10:42:15;;;;;;;3.75;1.88;;;19.70;99.90;;;;;;5068138;28;20052;-35
2023/08/29 10:44:43;;;;;;;2.42;1.40;;;19.80;99.90;;;;;;5065139;28;20136;-36
2023/08/29 10:47:31;;;;;;;2.33;1.65;;;20.00;99.90;;;;;;5062126;28;20052;-35
2023/08/29 10:50:07;;;;;;;2.47;1.20;;;20.00;99.90;;;;;;5059706;28;20118;-35
2023/08/29 10:52:39;;;;;;;2.95;1.38;;;20.00;99.90;;;;;;5066162;28;20540;-35
2023/08/29 10:55:21;;;;;;;2.47;1.42;;;20.00;99.90;;;;;;5069016;28;20056;-35
2023/08/29 10:57:47;;;;;;;3.95;1.80;;;20.10;99.90;;;;;;5060365;28;20415;-36
2023/08/29 11:00:32;;;;;;;4.65;1.60;;;20.20;99.90;;;;;;5057332;28;20064;-35
2023/08/29 11:02:59;;;;;;;3.33;1.38;;;20.30;99.90;;;;;;5072420;28;20494;-35
2023/08/29 11:05:25;;;;;;;2.60;1.80;;;20.50;99.90;;;;;;5060513;28;20079;-36
2023/08/29 11:07:50;;;;;;;4.20;1.98;;;20.70;99.90;;;;;;5065835;28;20076;-37
2023/08/29 11:10:22;;;;;;;3.20;2.03;;;20.80;99.90;;;;;;5065839;28;20610;-36
2023/08/29 11:13:10;;;;;;;2.45;1.60;;;21.00;99.90;;;;;;5062532;28;20067;-35
2023/08/29 11:15:51;;;;;;;3.25;1.60;;;21.20;99.90;;;;;;5063972;28;20135;-35
2023/08/29 11:18:21;;;;;;;2.42;1.52;;;21.40;99.90;;;;;;5067402;28;20079;-35
2023/08/29 11:20:46;;;;;;;2.80;1.25;;;21.50;99.90;;;;;;5067151;28;20048;-35
2023/08/29 11:23:13;;;;;;;5.40;1.55;;;21.70;99.90;;;;;;5064577;28;20040;-35
2023/08/29 11:25:39;;;;;;;2.33;1.45;;;21.90;99.90;;;;;;5065053;28;20098;-36
2023/08/29 11:28:05;;;;;;;3.28;1.67;;;21.90;99.90;;;;;;5066976;28;20547;-35
2023/08/29 11:30:33;;;;;;;4.13;1.50;;;21.80;99.90;;;;;;5066064;28;20094;-35
2023/08/29 11:32:59;;;;;;;3.78;1.20;;;21.60;99.90;;;;;;5060224;28;20060;-36
2023/08/29 11:35:28;;;;;;;2.28;1.13;;;21.30;99.90;;;;;;5067082;28;20048;-36
2023/08/29 11:37:54;;;;;;;4.25;1.50;;;21.10;99.90;;;;;;5066895;28;20057;-36
2023/08/29 11:40:20;;;;;;;2.60;1.40;;;21.10;99.90;;;;;;5067573;28;20060;-35
2023/08/29 11:42:46;;;;;;;2.97;1.58;;;20.90;99.90;;;;;;5064365;28;20055;-35
2023/08/29 11:45:14;;;;;;;3.25;1.65;;;20.80;99.90;;;;;;5073745;28;20044;-35
2023/08/29 11:47:41;;;;;;;3.22;1.83;;;20.60;99.90;;;;;;5067063;28;20059;-35
2023/08/29 11:50:07;;;;;;;2.88;1.50;;;20.40;99.90;;;;;;5065697;28;20597;-36
2023/08/29 11:52:32;;;;;;;2.75;1.77;;;20.20;99.90;;;;;;5073399;28;20040;-35
2023/08/29 11:55:00;;;;;;;3.92;1.50;;;20.20;99.90;;;;;;5069226;28;20049;-36
2023/08/29 11:57:30;;;;;;;2.65;1.40;;;20.10;99.90;;;;;;5063674;28;20464;-35
2023/08/29 11:59:57;;;;;;;2.70;1.73;;;20.00;99.90;;;;;;5063655;28;20055;-36
2023/08/29 12:02:24;;;;;;;2.70;1.70;;;19.80;99.90;;;;;;5050804;28;20048;-35
2023/08/29 12:04:57;;;;;;;2.38;1.70;;;19.70;99.90;;;;;;5064850;28;20052;-35
2023/08/29 12:07:23;;;;;;;4.72;1.40;;;19.70;99.90;;;;;;5074504;28;20055;-37
2023/08/29 12:09:52;;;;;;;1.88;1.30;;;19.60;99.90;;;;;;5069248;28;20063;-35
2023/08/29 12:12:30;;;;;;;2.97;1.65;;;19.70;99.90;;;;;;5066317;28;20164;-35
2023/08/29 12:14:56;;;;;;;3.05;2.00;;;19.70;99.90;;;;;;5069538;28;20080;-35
2023/08/29 12:17:23;;;;;;;2.22;1.67;;;19.60;99.90;;;;;;5070543;28;20083;-35
2023/08/29 12:19:49;;;;;;;5.60;1.92;;;19.50;99.90;;;;;;5069618;28;20060;-34
2023/08/29 12:22:21;;;;;;;2.20;1.50;;;19.40;99.90;;;;;;5071985;28;20064;-34
2023/08/29 12:24:58;;;;;;;2.92;1.65;;;19.30;99.90;;;;;;5075209;28;20131;-34
2023/08/29 12:27:24;;;;;;;2.90;2.20;;;19.20;99.90;;;;;;5071764;28;20072;-35
2023/08/29 12:29:49;;;;;;;3.95;2.15;;;19.20;99.90;;;;;;5069381;28;20113;-34
2023/08/29 12:32:16;;;;;;;2.90;2.30;;;19.20;99.90;;;;;;5069327;28;20064;-34
2023/08/29 12:34:43;;;;;;;3.67;2.30;;;19.20;99.90;;;;;;5069290;28;20053;-35
2023/08/29 12:37:11;;;;;;;4.03;2.60;;;19.10;99.90;;;;;;5066190;28;20441;-35
2023/08/29 12:39:37;;;;;;;4.85;2.40;;;19.10;99.90;;;;;;5070406;28;20083;-34
2023/08/29 12:42:04;;;;;;;3.45;2.17;;;19.20;99.90;;;;;;5069421;28;20075;-34
2023/08/29 12:44:29;;;;;;;4.10;2.50;;;19.10;99.90;;;;;;5075723;28;20109;-34
2023/08/29 12:46:55;;;;;;;4.30;2.20;;;19.10;99.90;;;;;;5085324;28;20449;-35